Time;durP1;ratioP1;P1;durP2;ratioP2;P2;SDS_P1;SDS_P2;PMS_P1;PMS_P2;Temp;Humidity;BMP_temperature;BMP_pressure;BME280_temperature;BME280_humidity;BME280_pressure;Samples;Min_cycle;Max_cycle;Signal;HPM_P1;HPM_P2
2023/06/17 00:02:59;;;;;;;3.80;2.33;;;23.90;77.30;;;;;;10979147;32;20076;-73
2023/06/17 00:09:02;;;;;;;3.78;2.37;;;23.80;77.60;;;;;;10966062;32;20018;-73
2023/06/17 00:15:06;;;;;;;3.67;1.87;;;23.70;77.50;;;;;;10964307;32;20027;-74
2023/06/17 00:21:08;;;;;;;4.45;3.03;;;23.70;77.40;;;;;;10974594;32;20053;-73
2023/06/17 00:27:10;;;;;;;6.05;2.33;;;23.60;77.10;;;;;;10963146;32;20030;-74
2023/06/17 00:33:13;;;;;;;5.65;2.47;;;23.60;77.40;;;;;;10984446;32;20400;-73
2023/06/17 00:39:15;;;;;;;4.32;2.67;;;23.70;77.70;;;;;;10985486;32;20045;-73
2023/06/17 00:45:18;;;;;;;7.32;2.97;;;23.80;77.30;;;;;;10972513;32;20027;-73
2023/06/17 00:51:25;;;;;;;5.22;3.45;;;23.60;77.50;;;;;;10985170;32;20049;-73
2023/06/17 00:57:29;;;;;;;7.07;3.28;;;23.60;77.50;;;;;;10984654;32;20049;-73
2023/06/17 01:03:31;;;;;;;3.08;2.17;;;23.50;77.50;;;;;;10984504;32;20010;-73
2023/06/17 01:09:37;;;;;;;4.40;2.37;;;23.30;77.70;;;;;;10984288;32;20027;-73
2023/06/17 01:15:40;;;;;;;7.07;4.20;;;23.40;77.70;;;;;;10984173;32;20049;-73
2023/06/17 01:21:42;;;;;;;4.45;3.00;;;23.30;77.80;;;;;;10970634;32;20400;-73
2023/06/17 01:27:46;;;;;;;3.20;2.15;;;23.30;78.50;;;;;;10983795;32;20053;-73
2023/06/17 01:33:50;;;;;;;6.30;3.67;;;23.30;78.50;;;;;;10983609;32;20019;-73
2023/06/17 01:39:57;;;;;;;5.70;3.75;;;23.10;78.60;;;;;;10983394;32;20023;-73
2023/06/17 01:46:00;;;;;;;3.70;2.65;;;23.10;77.90;;;;;;10982785;32;20019;-73
2023/06/17 01:52:03;;;;;;;4.10;3.05;;;23.10;77.80;;;;;;10982922;32;20018;-73
2023/06/17 01:58:13;;;;;;;4.80;3.17;;;23.10;77.60;;;;;;10982854;32;20015;-73
2023/06/17 02:04:15;;;;;;;6.28;4.18;;;23.00;77.50;;;;;;10964913;32;20034;-73
2023/06/17 02:10:17;;;;;;;4.85;3.58;;;22.80;77.70;;;;;;10979218;32;20049;-73
2023/06/17 02:16:21;;;;;;;7.12;3.78;;;22.80;78.10;;;;;;10978003;32;20054;-73
2023/06/17 02:22:23;;;;;;;6.32;4.40;;;22.90;77.70;;;;;;10967889;32;20042;-73
2023/06/17 02:28:26;;;;;;;7.87;4.90;;;23.00;77.50;;;;;;10981659;32;20454;-73
2023/06/17 02:34:29;;;;;;;5.10;3.33;;;22.80;77.70;;;;;;10963920;32;20068;-73
2023/06/17 02:40:31;;;;;;;6.12;4.18;;;22.60;77.90;;;;;;10981027;32;20344;-73
2023/06/17 02:46:33;;;;;;;8.55;4.35;;;22.40;78.20;;;;;;10980856;32;20052;-73
2023/06/17 02:52:37;;;;;;;6.22;3.42;;;22.50;78.30;;;;;;10979990;32;20065;-73
2023/06/17 02:58:43;;;;;;;6.85;5.05;;;22.70;78.10;;;;;;10980450;32;20352;-73
2023/06/17 03:04:45;;;;;;;5.78;4.03;;;22.50;78.40;;;;;;10962304;32;20048;-73
2023/06/17 03:10:48;;;;;;;7.70;5.87;;;22.30;78.50;;;;;;10975986;32;20014;-73
2023/06/17 03:16:50;;;;;;;5.68;4.12;;;22.20;78.60;;;;;;10977358;32;20081;-73
2023/06/17 03:22:54;;;;;;;6.87;5.20;;;22.20;78.70;;;;;;10967690;32;20022;-73
2023/06/17 03:28:57;;;;;;;7.72;5.32;;;22.30;78.40;;;;;;10979492;32;20014;-73
2023/06/17 03:34:59;;;;;;;7.57;4.75;;;22.30;78.20;;;;;;10979500;32;20081;-73
2023/06/17 03:41:02;;;;;;;10.75;4.35;;;22.10;78.40;;;;;;10976395;32;20031;-73
2023/06/17 03:47:04;;;;;;;5.55;4.40;;;22.20;78.40;;;;;;10965785;32;20321;-73
2023/06/17 03:53:08;;;;;;;9.25;6.28;;;22.10;78.40;;;;;;10979199;32;20328;-73
2023/06/17 03:59:11;;;;;;;6.25;4.15;;;21.90;78.70;;;;;;10978928;32;20014;-73
2023/06/17 04:05:14;;;;;;;13.80;4.53;;;21.80;78.90;;;;;;10981422;32;20018;-73
2023/06/17 04:11:16;;;;;;;8.50;6.10;;;21.80;78.90;;;;;;10969008;32;20064;-73
2023/06/17 04:17:19;;;;;;;5.90;4.28;;;21.80;79.00;;;;;;10986330;32;20022;-73
2023/06/17 04:23:21;;;;;;;5.03;3.15;;;21.80;78.90;;;;;;10986048;32;20045;-73
2023/06/17 04:29:23;;;;;;;6.55;5.30;;;22.00;78.60;;;;;;10985826;32;20015;-73
2023/06/17 04:35:26;;;;;;;8.38;5.78;;;22.00;78.70;;;;;;10985643;32;20026;-73
2023/06/17 04:41:32;;;;;;;6.75;4.53;;;22.20;78.50;;;;;;10985292;32;20022;-73
2023/06/17 04:47:35;;;;;;;5.82;4.30;;;22.30;78.50;;;;;;10971842;32;20023;-73
2023/06/17 04:53:40;;;;;;;5.68;4.12;;;22.40;78.20;;;;;;10985111;32;20015;-73
2023/06/17 04:59:43;;;;;;;9.25;6.05;;;22.30;78.60;;;;;;10984615;32;20068;-73
2023/06/17 05:05:45;;;;;;;4.68;3.60;;;22.30;78.70;;;;;;10984489;32;20045;-73
2023/06/17 05:11:49;;;;;;;7.43;4.75;;;22.60;78.80;;;;;;10984296;32;20045;-73
2023/06/17 05:17:51;;;;;;;8.90;5.20;;;22.70;79.00;;;;;;10980140;32;20037;-73
2023/06/17 05:23:57;;;;;;;7.15;4.57;;;22.70;79.10;;;;;;10980424;32;20057;-73
2023/06/17 05:30:00;;;;;;;7.50;4.75;;;22.80;79.20;;;;;;10970407;32;20084;-73
2023/06/17 05:36:02;;;;;;;7.32;4.75;;;23.00;79.40;;;;;;10983443;32;20045;-73
2023/06/17 05:42:04;;;;;;;7.00;4.85;;;23.10;79.00;;;;;;10983145;32;20022;-73
2023/06/17 05:48:06;;;;;;;5.68;3.75;;;23.10;78.90;;;;;;10983095;32;20086;-73
2023/06/17 05:54:08;;;;;;;6.95;4.87;;;23.10;78.90;;;;;;10969463;32;20381;-73
2023/06/17 06:00:12;;;;;;;6.18;3.85;;;23.30;78.70;;;;;;10968755;32;20050;-73
2023/06/17 06:06:51;;;;;;;7.28;5.00;;;23.40;78.50;;;;;;10982585;32;20015;-72
2023/06/17 06:12:53;;;;;;;;;;;23.40;77.50;;;;;;10980721;32;20026;-73
2023/06/17 06:18:56;;;;;;;5.85;3.75;;;23.40;77.40;;;;;;10981851;32;19933;-72
2023/06/17 06:24:58;;;;;;;6.53;4.55;;;23.50;77.30;;;;;;10981490;32;20014;-73
2023/06/17 06:31:00;;;;;;;5.97;4.32;;;23.50;76.40;;;;;;10981229;32;20077;-73
2023/06/17 06:37:02;;;;;;;7.03;4.72;;;23.70;76.40;;;;;;10981274;32;20026;-73
2023/06/17 06:43:05;;;;;;;6.93;4.03;;;23.80;77.00;;;;;;10978270;32;20034;-73
2023/06/17 06:49:12;;;;;;;5.12;3.90;;;24.10;77.30;;;;;;10977676;32;20052;-72
2023/06/17 06:55:14;;;;;;;7.87;4.65;;;24.30;77.10;;;;;;10979504;32;20053;-73
2023/06/17 07:01:16;;;;;;;7.72;3.53;;;24.40;76.30;;;;;;10980244;32;20057;-73
2023/06/17 07:07:19;;;;;;;6.00;3.92;;;24.40;75.80;;;;;;10980223;32;20014;-73
2023/06/17 07:13:21;;;;;;;6.43;3.95;;;24.50;74.30;;;;;;10966655;32;20018;-72
2023/06/17 07:19:24;;;;;;;5.93;3.75;;;24.60;74.80;;;;;;10979544;32;20072;-73
2023/06/17 07:25:27;;;;;;;8.23;4.32;;;24.80;73.90;;;;;;10984974;27;20061;-73
2023/06/17 07:31:30;;;;;;;6.05;3.53;;;24.80;74.00;;;;;;10978629;32;20022;-73
2023/06/17 07:37:32;;;;;;;5.35;3.10;;;25.00;73.90;;;;;;10979166;32;20033;-73
2023/06/17 07:43:35;;;;;;;6.97;3.22;;;25.20;73.80;;;;;;10974547;32;20019;-73
2023/06/17 07:49:38;;;;;;;6.22;3.92;;;25.30;72.70;;;;;;10979265;32;20329;-73
2023/06/17 07:55:40;;;;;;;6.65;4.03;;;25.30;72.80;;;;;;10975076;32;20014;-72
2023/06/17 08:01:43;;;;;;;6.93;4.07;;;25.30;71.20;;;;;;10976727;32;20026;-73
2023/06/17 08:07:45;;;;;;;6.25;4.07;;;25.30;70.70;;;;;;10976764;32;20019;-73
2023/06/17 08:13:47;;;;;;;7.60;3.47;;;25.60;70.60;;;;;;10976555;32;20030;-73
2023/06/17 08:19:49;;;;;;;5.35;3.45;;;25.70;70.40;;;;;;10978435;32;20045;-72
2023/06/17 08:25:51;;;;;;;5.10;3.08;;;25.80;69.90;;;;;;10965004;32;20085;-72
2023/06/17 08:31:54;;;;;;;5.57;3.55;;;25.80;70.10;;;;;;10940937;32;20303;-73
2023/06/17 08:37:56;;;;;;;5.70;4.53;;;25.90;69.00;;;;;;10940616;32;20038;-71
2023/06/17 08:44:01;;;;;;;7.60;3.90;;;26.10;69.30;;;;;;10940535;32;20018;-72
2023/06/17 08:50:06;;;;;;;4.87;3.55;;;26.10;68.50;;;;;;10937350;32;20045;-72
2023/06/17 08:56:08;;;;;;;6.50;4.47;;;26.20;68.70;;;;;;10947121;32;20195;-73
2023/06/17 09:02:11;;;;;;;5.45;3.03;;;26.40;68.10;;;;;;10947030;32;20011;-72
2023/06/17 09:08:13;;;;;;;5.12;3.35;;;26.60;66.80;;;;;;10947037;32;20022;-72
2023/06/17 09:14:17;;;;;;;8.57;3.12;;;26.80;67.10;;;;;;10932869;32;20053;-73
2023/06/17 09:20:23;;;;;;;5.10;3.15;;;26.90;66.30;;;;;;10946469;32;20023;-72
2023/06/17 09:26:32;;;;;;;4.22;2.85;;;27.10;65.20;;;;;;10945819;32;20374;-72
2023/06/17 09:32:42;;;;;;;7.45;3.92;;;27.20;64.40;;;;;;10953525;32;20030;-73
2023/06/17 09:38:44;;;;;;;8.35;2.85;;;27.30;65.70;;;;;;10983428;32;20045;-72
2023/06/17 09:44:47;;;;;;;7.68;4.87;;;27.30;64.80;;;;;;10983416;32;20297;-73
2023/06/17 09:50:55;;;;;;;7.20;3.25;;;27.40;64.20;;;;;;10983060;32;20434;-73
2023/06/17 09:56:59;;;;;;;4.87;3.17;;;27.40;62.70;;;;;;10982756;32;20294;-72
2023/06/17 10:03:01;;;;;;;5.55;3.60;;;27.70;62.80;;;;;;10966940;32;20053;-73
2023/06/17 10:09:06;;;;;;;5.97;3.10;;;27.80;62.00;;;;;;10968468;32;20030;-73
2023/06/17 10:15:11;;;;;;;7.37;4.03;;;27.90;61.00;;;;;;10982188;32;20010;-72
2023/06/17 10:21:13;;;;;;;5.22;3.42;;;28.00;62.20;;;;;;10981864;32;20045;-73
2023/06/17 10:27:18;;;;;;;6.68;3.55;;;28.20;61.40;;;;;;10981619;32;20332;-73
2023/06/17 10:33:29;;;;;;;8.75;4.15;;;28.30;62.50;;;;;;10978523;32;20045;-72
2023/06/17 10:39:31;;;;;;;3.60;2.80;;;28.50;61.40;;;;;;10952007;32;20084;-73
2023/06/17 10:45:49;;;;;;;5.45;3.45;;;28.70;62.20;;;;;;10977030;32;20041;-73
2023/06/17 10:51:56;;;;;;;9.68;5.15;;;28.80;62.10;;;;;;10967186;32;20431;-73
2023/06/17 10:57:58;;;;;;;6.97;4.07;;;29.00;63.40;;;;;;10967621;32;20023;-73
2023/06/17 11:04:07;;;;;;;5.47;3.42;;;29.10;61.90;;;;;;10980312;32;20042;-72
2023/06/17 11:10:09;;;;;;;7.32;4.62;;;29.30;61.50;;;;;;10976187;32;20405;-71
2023/06/17 11:16:11;;;;;;;7.43;4.47;;;29.60;62.10;;;;;;10979509;32;20042;-74
2023/06/17 11:22:13;;;;;;;7.07;4.93;;;29.70;62.50;;;;;;10978192;32;20030;-73
2023/06/17 11:28:16;;;;;;;8.18;5.12;;;29.80;62.40;;;;;;10979892;32;20348;-74
2023/06/17 11:34:19;;;;;;;5.95;4.82;;;29.90;63.40;;;;;;10979814;32;20035;-74
2023/06/17 11:40:22;;;;;;;6.82;5.43;;;30.00;61.90;;;;;;10966104;32;20183;-73
2023/06/17 11:46:25;;;;;;;4.85;3.42;;;30.20;61.30;;;;;;10979453;32;20049;-72
2023/06/17 11:52:27;;;;;;;6.93;4.10;;;30.40;59.40;;;;;;10979188;32;20325;-73
2023/06/17 11:58:31;;;;;;;8.30;7.30;;;30.50;58.60;;;;;;10977881;32;20439;-71
2023/06/17 12:04:36;;;;;;;6.75;3.90;;;30.70;61.20;;;;;;10952676;32;20023;-73
2023/06/17 12:10:38;;;;;;;7.97;5.45;;;30.50;60.10;;;;;;10979162;32;20336;-71
2023/06/17 12:17:02;;;;;;;9.07;4.03;;;30.50;62.30;;;;;;10978936;32;20003;-72
2023/06/17 12:23:05;;;;;;;4.57;3.17;;;30.50;60.10;;;;;;10896395;32;20066;-73
2023/06/17 12:29:08;;;;;;;3.80;2.65;;;30.40;61.50;;;;;;10905596;32;20057;-73
2023/06/17 12:35:11;;;;;;;8.65;4.12;;;30.60;59.30;;;;;;10907046;32;20020;-74
2023/06/17 12:41:15;;;;;;;5.90;2.72;;;30.60;57.40;;;;;;10907071;32;20031;-73
2023/06/17 12:47:20;;;;;;;6.68;3.78;;;30.60;60.60;;;;;;10894701;32;20053;-72
2023/06/17 12:53:23;;;;;;;9.02;4.78;;;30.60;60.00;;;;;;10966311;32;20045;-73
2023/06/17 12:59:25;;;;;;;5.45;3.47;;;30.60;61.20;;;;;;10984936;32;20015;-73
2023/06/17 13:05:35;;;;;;;6.18;4.18;;;30.60;59.10;;;;;;10968749;32;20031;-73
2023/06/17 13:11:38;;;;;;;5.72;2.85;;;30.70;61.90;;;;;;10984627;32;20061;-71
2023/06/17 13:17:41;;;;;;;5.75;3.10;;;30.70;59.70;;;;;;10984419;32;20032;-73
2023/06/17 13:23:43;;;;;;;3.90;2.65;;;30.80;56.90;;;;;;10984215;32;20438;-74
2023/06/17 13:29:46;;;;;;;6.30;3.95;;;30.80;56.30;;;;;;10980579;32;20046;-72
2023/06/17 13:35:47;;;;;;;8.20;3.67;;;30.90;56.20;;;;;;10983517;32;20015;-73
2023/06/17 13:41:50;;;;;;;6.40;4.22;;;30.80;55.50;;;;;;10982899;32;20430;-73
2023/06/17 13:47:52;;;;;;;5.57;3.40;;;30.80;55.10;;;;;;10969290;32;20542;-73
2023/06/17 13:53:54;;;;;;;14.52;5.05;;;30.70;56.60;;;;;;10969611;32;20019;-72
2023/06/17 13:59:56;;;;;;;5.53;3.28;;;30.60;57.10;;;;;;10982756;32;20014;-73
2023/06/17 14:05:58;;;;;;;9.75;4.40;;;30.60;56.50;;;;;;10983222;32;20415;-73
2023/06/17 14:12:02;;;;;;;7.40;4.30;;;30.70;60.00;;;;;;10982496;32;20443;-73
2023/06/17 14:18:04;;;;;;;5.85;2.95;;;30.60;62.70;;;;;;10983422;32;20316;-73
2023/06/17 14:24:08;;;;;;;3.65;2.45;;;30.50;63.20;;;;;;10983164;32;20019;-73
2023/06/17 14:30:12;;;;;;;6.32;2.67;;;30.60;60.10;;;;;;10981825;32;20014;-74
2023/06/17 14:36:17;;;;;;;4.35;3.05;;;30.70;58.60;;;;;;10981201;32;20014;-73
2023/06/17 14:42:19;;;;;;;4.20;2.72;;;30.80;57.40;;;;;;10981227;32;20045;-74
2023/06/17 14:48:22;;;;;;;3.80;2.60;;;30.80;56.50;;;;;;10977323;32;20070;-73
2023/06/17 14:54:30;;;;;;;14.85;3.30;;;30.80;56.30;;;;;;10981314;32;20037;-73
2023/06/17 15:00:33;;;;;;;4.90;3.25;;;30.80;54.70;;;;;;10953933;32;20026;-73
2023/06/17 15:06:35;;;;;;;6.40;3.72;;;30.70;58.20;;;;;;10981137;32;20014;-72
2023/06/17 15:12:41;;;;;;;7.12;2.67;;;30.60;58.70;;;;;;10980325;32;20015;-73
2023/06/17 15:18:43;;;;;;;6.75;3.37;;;30.60;57.10;;;;;;10968477;32;20006;-73
2023/06/17 15:24:45;;;;;;;4.25;3.00;;;30.60;57.80;;;;;;10978400;32;20026;-73
2023/06/17 15:30:47;;;;;;;4.28;2.53;;;30.60;56.00;;;;;;10464854;27;16918288;-73
2023/06/17 15:36:49;;;;;;;9.38;3.67;;;30.70;54.30;;;;;;10979378;32;20018;-73
2023/06/17 15:42:51;;;;;;;4.03;2.80;;;30.80;53.90;;;;;;10980527;32;20312;-73
2023/06/17 15:48:53;;;;;;;10.25;3.47;;;30.90;53.50;;;;;;10976653;32;20049;-72
2023/06/17 15:54:55;;;;;;;5.90;3.53;;;31.00;52.70;;;;;;10980984;32;20019;-73
2023/06/17 16:00:58;;;;;;;6.97;4.35;;;31.00;51.40;;;;;;10981836;32;20015;-73
2023/06/17 16:07:02;;;;;;;5.28;2.90;;;31.10;51.60;;;;;;10972728;32;20412;-73
2023/06/17 16:13:05;;;;;;;5.68;3.40;;;31.00;50.20;;;;;;10987803;32;20045;-73
2023/06/17 16:19:06;;;;;;;4.82;2.92;;;31.10;49.20;;;;;;10987011;32;20023;-73
2023/06/17 16:25:09;;;;;;;4.85;3.15;;;31.10;49.50;;;;;;10987093;32;20023;-73
2023/06/17 16:31:12;;;;;;;5.12;2.78;;;31.20;49.60;;;;;;10972382;32;20058;-73
2023/06/17 16:37:15;;;;;;;4.85;2.97;;;31.30;49.50;;;;;;10986736;32;20057;-73
2023/06/17 16:43:20;;;;;;;5.03;3.47;;;31.30;49.40;;;;;;10985606;32;20038;-72
2023/06/17 16:49:27;;;;;;;5.12;3.25;;;31.30;48.90;;;;;;10986608;32;20023;-72
2023/06/17 16:55:41;;;;;;;5.07;3.28;;;31.30;48.90;;;;;;10986441;32;20015;-73
2023/06/17 17:01:43;;;;;;;4.50;2.20;;;31.30;49.40;;;;;;10985587;32;20054;-73
2023/06/17 17:07:44;;;;;;;4.47;2.55;;;31.10;49.90;;;;;;10984827;32;20023;-73
2023/06/17 17:13:46;;;;;;;4.80;2.70;;;31.10;50.00;;;;;;10984093;32;20309;-73
2023/06/17 17:19:49;;;;;;;3.80;2.33;;;31.00;50.10;;;;;;10985202;32;20026;-73
2023/06/17 17:25:51;;;;;;;4.82;3.10;;;31.00;50.30;;;;;;10985254;32;20377;-73
2023/06/17 17:31:53;;;;;;;7.90;3.25;;;30.90;50.40;;;;;;10970508;32;20329;-73
2023/06/17 17:38:15;;;;;;;5.07;2.65;;;30.90;50.40;;;;;;10970936;32;20015;-73
2023/06/17 17:44:17;;;;;;;8.20;2.45;;;30.90;50.10;;;;;;10984684;32;20027;-74
2023/06/17 17:50:19;;;;;;;5.80;2.67;;;30.80;50.60;;;;;;10983920;32;20041;-73
2023/06/17 17:56:21;;;;;;;6.18;3.33;;;30.80;50.80;;;;;;10984476;32;20045;-73
2023/06/17 18:02:24;;;;;;;2.62;1.80;;;31.00;50.80;;;;;;10984106;32;20049;-72
2023/06/17 18:09:10;;;;;;;5.53;1.92;;;30.90;51.10;;;;;;10969224;32;20030;-72
2023/06/17 18:15:12;;;;;;;2.97;1.92;;;30.60;51.40;;;;;;10982524;32;20066;-72
2023/06/17 18:21:14;;;;;;;6.68;3.60;;;30.30;52.60;;;;;;10982139;32;20022;-73
2023/06/17 18:27:17;;;;;;;2.53;1.50;;;30.00;53.00;;;;;;10981647;32;20329;-72
2023/06/17 18:33:19;;;;;;;3.47;1.52;;;29.80;53.70;;;;;;10981597;32;20023;-73
2023/06/17 18:39:21;;;;;;;2.83;1.87;;;29.70;54.10;;;;;;10981202;32;20332;-73
2023/06/17 18:45:22;;;;;;;3.70;2.25;;;29.50;55.80;;;;;;10978229;32;20062;-72
2023/06/17 18:51:24;;;;;;;4.07;2.20;;;29.30;56.80;;;;;;10980559;32;20045;-73
2023/06/17 18:57:27;;;;;;;4.82;2.15;;;29.30;57.70;;;;;;10980510;32;20195;-73
2023/06/17 19:03:29;;;;;;;2.85;1.58;;;29.10;58.20;;;;;;10978673;32;20030;-73
2023/06/17 19:09:31;;;;;;;2.80;1.37;;;29.00;59.00;;;;;;10966642;32;20404;-73
2023/06/17 19:15:35;;;;;;;4.00;2.33;;;28.90;60.20;;;;;;10980365;32;20046;-73
2023/06/17 19:21:38;;;;;;;3.87;2.12;;;28.80;61.00;;;;;;10966634;32;20049;-73
2023/06/17 19:27:40;;;;;;;2.33;1.60;;;28.60;61.50;;;;;;10962810;32;20053;-73
2023/06/17 19:33:43;;;;;;;1.12;0.70;;;28.50;62.20;;;;;;10979955;32;20400;-73
2023/06/17 19:39:45;;;;;;;2.08;0.93;;;28.40;62.90;;;;;;10975954;32;20030;-73
2023/06/17 19:45:47;;;;;;;6.78;2.33;;;28.30;63.60;;;;;;10976182;32;20387;-73
2023/06/17 19:51:54;;;;;;;4.18;2.35;;;28.30;64.10;;;;;;10978885;32;20427;-73
2023/06/17 19:57:55;;;;;;;7.87;2.33;;;28.20;64.50;;;;;;10978256;32;20427;-74
2023/06/17 20:03:57;;;;;;;2.67;2.00;;;28.10;65.10;;;;;;10962364;32;20019;-72
2023/06/17 20:10:00;;;;;;;4.12;1.65;;;28.10;65.40;;;;;;10979223;32;20022;-73
2023/06/17 20:16:02;;;;;;;3.75;2.10;;;28.00;66.00;;;;;;10977438;32;20027;-73
2023/06/17 20:22:05;;;;;;;2.83;1.80;;;27.90;66.40;;;;;;10977963;32;20049;-73
2023/06/17 20:28:07;;;;;;;3.72;2.30;;;27.90;66.90;;;;;;10965215;32;20416;-73
2023/06/17 20:34:09;;;;;;;3.20;2.00;;;27.90;67.50;;;;;;10977988;32;20026;-73
2023/06/17 20:40:11;;;;;;;4.95;2.87;;;27.80;67.90;;;;;;10976797;32;20045;-73
2023/06/17 20:46:13;;;;;;;3.25;2.25;;;27.70;68.30;;;;;;10979487;32;20462;-73
2023/06/17 20:52:16;;;;;;;5.82;2.78;;;27.60;68.70;;;;;;10983795;32;20396;-73
2023/06/17 20:58:18;;;;;;;5.07;2.90;;;27.50;69.10;;;;;;10969875;32;20120;-73
2023/06/17 21:04:21;;;;;;;3.62;2.20;;;27.40;69.30;;;;;;10983670;32;20022;-73
2023/06/17 21:10:23;;;;;;;4.18;2.35;;;27.40;69.60;;;;;;10970739;32;20058;-73
2023/06/17 21:16:25;;;;;;;4.30;2.50;;;27.30;69.90;;;;;;10970454;32;20057;-73
2023/06/17 21:22:28;;;;;;;4.30;2.45;;;27.30;70.80;;;;;;10984048;32;20053;-73
2023/06/17 21:28:30;;;;;;;4.87;2.67;;;27.10;72.00;;;;;;10983771;32;20022;-73
2023/06/17 21:34:32;;;;;;;7.50;3.12;;;26.90;73.60;;;;;;10983641;32;20064;-74
2023/06/17 21:40:34;;;;;;;5.60;3.22;;;26.80;74.30;;;;;;10983485;32;20027;-73
2023/06/17 21:46:36;;;;;;;5.07;2.55;;;26.70;74.10;;;;;;10983141;32;20405;-73
2023/06/17 21:52:38;;;;;;;4.80;3.47;;;26.70;74.30;;;;;;10982037;32;20044;-73
2023/06/17 21:58:40;;;;;;;13.55;3.30;;;26.70;74.50;;;;;;10967836;32;20026;-74
2023/06/17 22:04:42;;;;;;;4.05;2.97;;;26.60;74.40;;;;;;10981217;32;20031;-73
2023/06/17 22:10:44;;;;;;;5.55;3.42;;;26.40;74.60;;;;;;10980816;32;20026;-73
2023/06/17 22:16:46;;;;;;;5.32;2.95;;;26.30;75.00;;;;;;10982474;32;20018;-74
2023/06/17 22:22:48;;;;;;;3.15;1.92;;;26.30;75.10;;;;;;10982149;32;20525;-73
2023/06/17 22:28:51;;;;;;;4.15;2.40;;;26.40;75.10;;;;;;10964731;32;20053;-73
2023/06/17 22:35:00;;;;;;;4.12;2.40;;;26.40;75.50;;;;;;10967753;32;20065;-73
2023/06/17 22:41:02;;;;;;;4.40;2.67;;;26.40;75.90;;;;;;10981483;32;20419;-73
2023/06/17 22:47:05;;;;;;;3.08;1.77;;;26.40;76.20;;;;;;10981194;32;20046;-73
2023/06/17 23:00:14;;;;;;;5.43;2.90;;;26.30;75.60;;;;;;10981492;32;20038;-73
2023/06/17 23:06:16;;;;;;;5.80;3.78;;;26.10;75.70;;;;;;10981570;32;20011;-73
2023/06/17 23:12:17;;;;;;;4.07;2.67;;;26.00;76.00;;;;;;10977322;32;20385;-73
2023/06/17 23:18:19;;;;;;;5.62;3.10;;;26.10;75.80;;;;;;10979812;32;20340;-73
2023/06/17 23:24:23;;;;;;;5.45;3.33;;;25.90;75.90;;;;;;10975479;32;20022;-73
2023/06/17 23:30:25;;;;;;;9.13;4.07;;;26.00;76.00;;;;;;11016007;27;20415;-74
2023/06/17 23:36:29;;;;;;;7.00;4.95;;;26.00;76.20;;;;;;11019034;32;20030;-73
2023/06/17 23:42:31;;;;;;;7.32;4.72;;;25.90;76.40;;;;;;11018054;32;20041;-73
2023/06/17 23:48:33;;;;;;;7.50;5.03;;;25.70;76.90;;;;;;11018234;32;20049;-73
2023/06/17 23:54:39;;;;;;;6.37;3.92;;;25.70;76.90;;;;;;11018220;32;20014;-74
